Airfield :
LOGIN :

Register | Disclaimer

   EN    FR    IT 

 










Legend :    VFR   Marginal VFR   IFR   Intensive IFR   Very Intensive IFR
Visi :
Ceiling :
>= 8 km
>= 3000ft
5 to 8 km
1000 to 3000 ft
1500m to 5 km
500 to 1000 ft
800 to 1500m
200 to 500 ft
< 800m
< 200 ft
Symbols :   Thunderstorms  Fog  Heavy snow  Heavy precipitations  Wind > 20 kt
SIGMETs :     Misc.  Thunderstorms  Icing  Turbulence  Mountain Waves  Volcanic Ashes







- Airport Elevation : 295 ft
- IATA code : BWE


EDVE - Braunschweig

CURRENT METAR :
  • 241850Z 28008KT CAVOK 08/05 Q1031

EXPIRED METARs :
  • 241820Z 28008KT CAVOK 08/05 Q1030
  • 241750Z 29008KT CAVOK 08/06 Q1030
  • 241720Z 28007KT CAVOK 08/06 Q1030
  • 241620Z 29010KT 9999 FEW013 SCT050 BKN098 09/06 Q1029
  • 241550Z 30014KT 9999 FEW013 SCT037 BKN048 10/05 Q1029

TAF TAF EDVE
Valid from the 24 at 18:00 until the 24 at 21:00 UTC


241728Z 2418/2421 28008KT 9999 FEW040
No reported NOTAMs for that airfield.



MET'MAP, your aeronautical weather chart ! - Copyright ORBIFLY December 2007 - Disclaimer

ORBIFLY MET'MAP TEAM :

Programming & Development : Alexandra Zaïnal
Concept & Development : Baudouin d'Aumeries
Co-Development & Prog : Marc-Olivier Méhu
Technical & hardware support : Manuel Goepfert

Contact : metmap@orbifly.com




SOURCES & CREDITS :

   NOAA